Time;durP1;ratioP1;P1;durP2;ratioP2;P2;SDS_P1;SDS_P2;PMS_P1;PMS_P2;Temp;Humidity;BMP_temperature;BMP_pressure;BME280_temperature;BME280_humidity;BME280_pressure;Samples;Min_cycle;Max_cycle;Signal;HPM_P1;HPM_P2
2023/09/13 00:00:15;;;;;;;10.27;4.03;;;20.00;98.80;;;;;;5069985;28;20052;-75
2023/09/13 00:02:42;;;;;;;12.13;4.38;;;20.00;99.00;;;;;;5087373;28;20048;-76
2023/09/13 00:05:09;;;;;;;10.25;4.13;;;19.90;99.10;;;;;;5073370;28;20343;-76
2023/09/13 00:07:36;;;;;;;7.57;4.15;;;19.90;99.30;;;;;;5074167;28;20059;-76
2023/09/13 00:10:04;;;;;;;16.42;4.38;;;19.90;99.50;;;;;;5070956;28;20048;-76
2023/09/13 00:12:31;;;;;;;11.55;4.43;;;19.80;99.60;;;;;;5078666;28;20103;-76
2023/09/13 00:14:58;;;;;;;8.60;3.80;;;19.80;99.20;;;;;;5072653;28;20186;-76
2023/09/13 00:17:27;;;;;;;11.70;4.68;;;19.80;99.60;;;;;;5076788;28;20055;-76
2023/09/13 00:19:57;;;;;;;12.73;4.50;;;19.80;99.20;;;;;;5067916;28;20033;-76
2023/09/13 00:22:26;;;;;;;10.35;4.53;;;19.80;98.90;;;;;;5069299;28;20041;-76
2023/09/13 00:24:53;;;;;;;11.85;3.97;;;19.80;99.10;;;;;;5073181;28;20144;-76
2023/09/13 00:27:20;;;;;;;10.95;4.20;;;19.70;99.40;;;;;;5072053;28;20032;-76
2023/09/13 00:29:47;;;;;;;8.90;3.88;;;19.70;99.90;;;;;;5086783;28;20072;-76
2023/09/13 00:32:14;;;;;;;11.48;4.03;;;19.70;99.90;;;;;;5060726;28;20576;-76
2023/09/13 00:34:42;;;;;;;12.18;4.68;;;19.70;99.90;;;;;;5075478;28;20048;-76
2023/09/13 00:37:09;;;;;;;8.90;4.35;;;19.70;99.90;;;;;;5077360;28;20866;-76
2023/09/13 00:39:36;;;;;;;13.40;4.70;;;19.60;99.90;;;;;;5075936;28;20044;-76
2023/09/13 00:42:04;;;;;;;9.23;4.22;;;19.60;99.90;;;;;;5077040;28;20965;-76
2023/09/13 00:44:31;;;;;;;15.52;5.03;;;19.60;99.80;;;;;;5073036;28;20052;-76
2023/09/13 00:46:59;;;;;;;16.50;4.45;;;19.60;99.90;;;;;;5053002;28;20052;-76
2023/09/13 00:49:26;;;;;;;15.02;4.47;;;19.50;99.80;;;;;;5067219;28;20052;-76
2023/09/13 00:51:56;;;;;;;12.27;4.00;;;19.50;99.20;;;;;;5072483;28;20050;-76
2023/09/13 00:54:24;;;;;;;13.07;3.88;;;19.40;99.00;;;;;;5054069;28;20985;-76
2023/09/13 00:56:52;;;;;;;9.63;3.28;;;19.40;98.80;;;;;;5074925;28;20131;-76
2023/09/13 00:59:19;;;;;;;10.52;4.03;;;19.50;98.80;;;;;;5076991;28;20060;-76
2023/09/13 01:01:47;;;;;;;10.80;3.45;;;19.40;98.10;;;;;;5058839;28;20039;-76
2023/09/13 01:04:16;;;;;;;12.55;3.83;;;19.40;98.40;;;;;;5080939;28;20048;-76
2023/09/13 01:06:44;;;;;;;11.65;4.00;;;19.40;98.00;;;;;;5075491;28;20060;-76
2023/09/13 01:09:14;;;;;;;8.50;3.40;;;19.40;97.90;;;;;;5079865;28;21287;-76
2023/09/13 01:11:41;;;;;;;9.85;3.88;;;19.30;97.20;;;;;;5079650;28;20056;-76
2023/09/13 01:14:08;;;;;;;9.82;3.45;;;19.20;98.40;;;;;;5072553;28;20441;-76
2023/09/13 01:16:41;;;;;;;13.43;4.07;;;19.30;97.60;;;;;;5061710;28;20050;-76
2023/09/13 01:19:12;;;;;;;13.85;5.13;;;19.30;97.70;;;;;;5074005;28;20055;-76
2023/09/13 01:22:17;;;;;;;12.00;3.97;;;19.30;98.00;;;;;;5089277;27;20044;-76
2023/09/13 01:25:22;;;;;;;15.18;4.75;;;19.20;98.00;;;;;;5091914;28;20043;-76
2023/09/13 01:28:32;;;;;;;9.23;3.90;;;19.20;98.10;;;;;;5074888;28;20548;-76
2023/09/13 01:31:08;;;;;;;10.35;3.95;;;19.20;98.10;;;;;;5055828;28;20101;-76
2023/09/13 01:33:37;;;;;;;9.88;4.13;;;19.20;98.50;;;;;;5079736;28;20396;-76
2023/09/13 01:36:05;;;;;;;13.55;3.75;;;19.20;98.70;;;;;;5076487;28;20153;-76
2023/09/13 01:38:32;;;;;;;12.35;4.00;;;19.10;98.60;;;;;;5071426;28;20072;-76
2023/09/13 01:41:08;;;;;;;9.18;3.53;;;19.10;99.00;;;;;;5074383;28;20058;-76
2023/09/13 01:43:37;;;;;;;11.40;3.33;;;19.10;99.70;;;;;;5071335;28;20044;-76
2023/09/13 01:46:05;;;;;;;9.82;3.72;;;19.00;99.10;;;;;;5081491;28;20044;-76
2023/09/13 01:48:33;;;;;;;16.65;5.13;;;19.00;98.90;;;;;;5086382;27;20040;-76
2023/09/13 01:51:02;;;;;;;8.10;3.40;;;19.00;98.80;;;;;;5071786;28;20057;-76
2023/09/13 01:53:30;;;;;;;10.60;3.45;;;18.90;99.00;;;;;;5076678;28;20123;-76
2023/09/13 01:55:57;;;;;;;13.43;3.63;;;19.00;98.80;;;;;;5088465;27;20054;-76
2023/09/13 01:58:24;;;;;;;13.65;3.60;;;19.00;98.70;;;;;;5073727;28;21019;-76
2023/09/13 02:00:52;;;;;;;8.95;3.65;;;18.90;98.60;;;;;;5068799;28;20051;-76
2023/09/13 02:03:19;;;;;;;12.20;3.67;;;18.80;99.20;;;;;;5079944;28;20086;-76
2023/09/13 02:05:46;;;;;;;9.55;4.22;;;18.80;99.10;;;;;;5060338;28;20067;-76
2023/09/13 02:08:14;;;;;;;8.63;3.30;;;18.80;99.30;;;;;;5058540;28;20036;-76
2023/09/13 02:10:41;;;;;;;8.75;3.42;;;18.80;99.60;;;;;;5070853;28;20169;-76
2023/09/13 02:13:08;;;;;;;7.45;3.17;;;18.80;99.30;;;;;;5072764;28;20930;-76
2023/09/13 02:15:39;;;;;;;12.73;4.38;;;18.80;99.50;;;;;;5059920;28;20087;-76
2023/09/13 02:18:07;;;;;;;13.70;4.20;;;18.80;99.90;;;;;;5090413;27;20052;-76
2023/09/13 02:20:34;;;;;;;10.05;3.65;;;18.80;99.90;;;;;;5069392;28;20135;-76
2023/09/13 02:23:02;;;;;;;8.02;3.50;;;18.80;99.70;;;;;;5072920;28;20052;-76
2023/09/13 02:25:34;;;;;;;11.18;3.97;;;18.70;99.50;;;;;;5076562;28;20132;-76
2023/09/13 02:28:01;;;;;;;13.75;4.63;;;18.80;99.20;;;;;;5061320;28;20076;-76
2023/09/13 02:30:31;;;;;;;8.15;3.75;;;18.70;99.50;;;;;;5060540;28;20503;-76
2023/09/13 02:32:58;;;;;;;8.10;3.75;;;18.70;99.90;;;;;;5070004;28;20058;-76
2023/09/13 02:35:26;;;;;;;10.43;4.30;;;18.70;99.90;;;;;;5072550;28;20135;-76
2023/09/13 02:37:53;;;;;;;8.70;3.15;;;18.70;99.90;;;;;;5057015;28;20040;-76
2023/09/13 02:40:20;;;;;;;10.30;3.47;;;18.60;99.90;;;;;;5073276;28;20442;-76
2023/09/13 02:42:47;;;;;;;11.52;4.10;;;18.60;99.90;;;;;;5080777;28;20055;-76
2023/09/13 02:45:15;;;;;;;9.73;3.95;;;18.50;99.80;;;;;;5076179;28;20036;-76
2023/09/13 02:47:43;;;;;;;12.50;3.83;;;18.60;99.90;;;;;;5083114;28;20092;-76
2023/09/13 02:50:11;;;;;;;10.73;4.30;;;18.50;99.90;;;;;;5078435;28;20799;-76
2023/09/13 02:52:38;;;;;;;12.23;3.97;;;18.60;99.90;;;;;;5073357;28;20464;-76
2023/09/13 02:55:05;;;;;;;12.15;4.65;;;18.50;99.90;;;;;;5066936;28;20048;-76
2023/09/13 02:57:33;;;;;;;9.93;4.18;;;18.50;99.90;;;;;;5078417;28;20056;-76
2023/09/13 03:00:03;;;;;;;11.98;4.55;;;18.50;99.90;;;;;;5063695;28;20090;-76
2023/09/13 03:02:33;;;;;;;9.82;3.55;;;18.50;99.90;;;;;;5059490;28;20044;-76
2023/09/13 03:05:00;;;;;;;11.73;4.25;;;18.40;99.90;;;;;;5076885;28;20046;-76
2023/09/13 03:07:28;;;;;;;10.75;3.53;;;18.40;99.70;;;;;;5078663;28;20042;-76
2023/09/13 03:09:57;;;;;;;12.00;4.68;;;18.40;99.80;;;;;;5079251;28;20498;-76
2023/09/13 03:12:25;;;;;;;11.02;3.97;;;18.40;99.90;;;;;;5077297;28;20044;-76
2023/09/13 03:14:56;;;;;;;10.27;3.70;;;18.30;99.90;;;;;;5077754;28;20055;-76
2023/09/13 03:17:23;;;;;;;8.73;3.88;;;18.30;99.90;;;;;;5061384;28;20065;-76
2023/09/13 03:19:50;;;;;;;9.80;4.07;;;18.30;99.90;;;;;;5063209;28;20052;-75
2023/09/13 03:22:19;;;;;;;10.40;3.85;;;18.30;99.90;;;;;;5072172;28;20105;-76
2023/09/13 03:24:46;;;;;;;12.90;4.53;;;18.30;99.70;;;;;;5080457;28;22814;-76
2023/09/13 03:27:13;;;;;;;9.70;3.60;;;18.30;98.80;;;;;;5078118;28;20949;-76
2023/09/13 03:29:41;;;;;;;11.15;4.63;;;18.30;98.70;;;;;;5074645;28;20072;-76
2023/09/13 03:32:08;;;;;;;11.27;3.88;;;18.30;98.60;;;;;;5076989;28;20063;-76
2023/09/13 03:34:37;;;;;;;6.95;3.58;;;18.30;99.60;;;;;;5074544;28;20046;-76
2023/09/13 03:37:06;;;;;;;10.10;3.60;;;18.30;99.90;;;;;;5075835;28;20036;-76
2023/09/13 03:39:34;;;;;;;9.77;3.50;;;18.20;99.90;;;;;;5076969;28;20068;-76
2023/09/13 03:42:02;;;;;;;8.38;3.88;;;18.20;99.90;;;;;;5072241;28;20525;-76
2023/09/13 03:44:30;;;;;;;10.02;4.03;;;18.20;99.90;;;;;;5079633;28;20050;-76
2023/09/13 03:46:57;;;;;;;10.40;3.92;;;18.20;99.90;;;;;;5076304;28;20047;-76
2023/09/13 03:49:24;;;;;;;9.63;4.15;;;18.20;99.90;;;;;;5079644;28;20151;-76
2023/09/13 03:51:52;;;;;;;8.80;3.70;;;18.20;99.90;;;;;;5065090;28;20443;-75
2023/09/13 03:54:19;;;;;;;10.82;4.00;;;18.20;99.80;;;;;;5074869;28;20055;-76
2023/09/13 03:56:46;;;;;;;14.90;4.18;;;18.10;99.80;;;;;;5073015;28;20051;-76
2023/09/13 03:59:13;;;;;;;9.13;3.42;;;18.10;99.90;;;;;;5069768;28;20052;-76
2023/09/13 04:01:41;;;;;;;13.35;4.20;;;18.10;99.90;;;;;;5077113;28;20039;-76
2023/09/13 04:04:08;;;;;;;15.52;4.72;;;18.10;99.90;;;;;;5076224;28;20051;-76
2023/09/13 04:06:35;;;;;;;14.90;4.65;;;18.00;99.90;;;;;;5070190;28;20185;-76
2023/09/13 04:09:03;;;;;;;12.98;4.38;;;18.00;99.90;;;;;;5073605;28;20398;-76
2023/09/13 04:11:30;;;;;;;13.43;4.30;;;18.00;99.90;;;;;;5073394;28;20056;-76
2023/09/13 04:13:57;;;;;;;12.13;4.93;;;18.00;99.90;;;;;;5074203;28;20094;-76
2023/09/13 04:16:24;;;;;;;12.20;3.63;;;17.90;99.90;;;;;;5074047;28;20147;-76
2023/09/13 04:18:51;;;;;;;7.47;3.55;;;17.90;99.90;;;;;;5091342;28;20127;-76
2023/09/13 04:21:18;;;;;;;13.60;4.25;;;17.90;99.90;;;;;;5076167;28;20063;-76
2023/09/13 04:23:45;;;;;;;9.32;4.18;;;17.90;99.90;;;;;;5071636;28;20037;-75
2023/09/13 04:26:15;;;;;;;13.07;4.53;;;17.90;99.90;;;;;;5079211;28;20502;-76
2023/09/13 04:28:42;;;;;;;11.23;4.43;;;17.90;99.90;;;;;;5070076;28;20048;-76
2023/09/13 04:31:09;;;;;;;10.00;3.53;;;17.90;99.90;;;;;;5065487;28;20079;-76
2023/09/13 04:33:54;;;;;;;9.98;4.22;;;17.80;99.90;;;;;;5061195;28;20060;-76
2023/09/13 04:36:26;;;;;;;9.45;3.55;;;17.90;99.90;;;;;;5093594;27;20056;-76
2023/09/13 04:38:56;;;;;;;9.48;4.15;;;17.80;99.90;;;;;;5082973;28;20052;-76
2023/09/13 04:41:24;;;;;;;12.27;3.92;;;17.90;99.90;;;;;;5081698;28;20040;-76
2023/09/13 04:43:51;;;;;;;13.25;4.10;;;17.90;99.90;;;;;;5082334;28;20387;-76
2023/09/13 04:46:19;;;;;;;9.05;4.05;;;17.90;99.90;;;;;;5076982;28;20109;-76
2023/09/13 04:48:46;;;;;;;12.18;4.03;;;17.90;99.90;;;;;;5079254;28;20044;-76
2023/09/13 04:51:13;;;;;;;14.25;4.82;;;17.90;99.90;;;;;;5064631;28;20052;-76
2023/09/13 04:53:41;;;;;;;12.20;4.47;;;17.90;99.90;;;;;;5080899;28;20405;-76
2023/09/13 04:56:09;;;;;;;10.82;4.65;;;17.90;99.90;;;;;;5093910;27;20052;-77
2023/09/13 04:58:41;;;;;;;10.57;4.72;;;18.00;99.90;;;;;;5080720;27;20096;-77
2023/09/13 05:01:09;;;;;;;11.35;4.63;;;18.00;99.90;;;;;;5082330;28;20132;-77
2023/09/13 05:03:36;;;;;;;12.55;4.43;;;18.00;99.90;;;;;;5083120;28;20171;-77
2023/09/13 05:06:04;;;;;;;9.55;4.25;;;18.00;99.90;;;;;;5081514;28;20516;-77
2023/09/13 05:08:36;;;;;;;12.57;4.67;;;18.00;99.90;;;;;;5098344;27;20044;-77
2023/09/13 05:11:03;;;;;;;9.95;4.82;;;18.00;99.90;;;;;;5095099;27;20320;-77
2023/09/13 05:13:32;;;;;;;8.93;4.18;;;18.00;99.90;;;;;;5079036;28;20067;-77
2023/09/13 05:15:59;;;;;;;12.13;4.35;;;18.10;99.90;;;;;;5094916;27;20146;-77
2023/09/13 05:18:26;;;;;;;13.48;4.07;;;18.20;99.90;;;;;;5067402;28;20074;-77
2023/09/13 05:20:53;;;;;;;7.57;4.18;;;18.20;99.90;;;;;;5085969;28;20057;-77
2023/09/13 05:23:20;;;;;;;13.13;4.43;;;18.20;99.90;;;;;;5093445;28;20051;-77
2023/09/13 05:25:48;;;;;;;10.00;4.35;;;18.20;99.90;;;;;;5081205;28;20051;-77
2023/09/13 05:28:16;;;;;;;13.05;4.22;;;18.20;99.90;;;;;;5074872;28;20090;-77
2023/09/13 05:30:48;;;;;;;10.57;4.78;;;18.30;99.90;;;;;;5078960;28;20044;-77
2023/09/13 05:33:16;;;;;;;;;;;18.30;99.90;;;;;;5081695;28;20048;-77
2023/09/13 05:35:43;;;;;;;8.73;4.38;;;18.30;99.90;;;;;;5093510;28;19927;-77
2023/09/13 05:38:10;;;;;;;16.15;4.72;;;18.40;99.90;;;;;;5084223;28;20051;-77
2023/09/13 05:40:37;;;;;;;13.77;4.50;;;18.40;99.90;;;;;;5076943;28;20143;-77
2023/09/13 05:43:04;;;;;;;13.88;4.47;;;18.40;99.70;;;;;;5065046;28;20609;-77
2023/09/13 05:45:31;;;;;;;12.02;4.25;;;18.50;98.90;;;;;;5079401;28;22109;-77
2023/09/13 05:47:59;;;;;;;11.98;5.05;;;18.60;99.00;;;;;;5056963;28;20048;-77
2023/09/13 05:50:27;;;;;;;21.45;5.03;;;18.60;98.90;;;;;;5072685;28;20791;-77
2023/09/13 05:52:55;;;;;;;15.50;5.55;;;18.50;98.30;;;;;;5078703;28;20066;-77
2023/09/13 05:55:22;;;;;;;16.75;4.82;;;18.60;98.60;;;;;;5089134;27;20051;-77
2023/09/13 05:57:52;;;;;;;18.77;5.43;;;18.70;98.60;;;;;;5075915;28;20049;-76
2023/09/13 06:00:19;;;;;;;15.75;5.38;;;18.80;98.90;;;;;;5074796;28;20601;-77
2023/09/13 06:02:46;;;;;;;8.80;4.65;;;18.90;99.30;;;;;;5074959;28;20028;-77
2023/09/13 06:05:13;;;;;;;19.52;5.40;;;19.00;98.90;;;;;;5072166;28;20552;-76
2023/09/13 06:07:42;;;;;;;14.95;4.82;;;19.10;98.80;;;;;;5070321;28;21026;-76
2023/09/13 06:10:11;;;;;;;17.05;5.53;;;19.20;98.20;;;;;;5091648;28;20043;-76
2023/09/13 06:12:38;;;;;;;14.65;5.72;;;19.30;97.80;;;;;;5081976;28;20044;-76
2023/09/13 06:15:06;;;;;;;13.32;4.72;;;19.40;97.70;;;;;;5081492;28;20090;-77
2023/09/13 06:17:33;;;;;;;14.60;4.38;;;19.40;96.90;;;;;;5096897;27;20057;-76
2023/09/13 06:20:00;;;;;;;20.30;5.70;;;19.50;96.20;;;;;;5091850;27;20044;-76
2023/09/13 06:22:27;;;;;;;16.48;4.75;;;19.60;95.70;;;;;;5073197;28;20063;-76
2023/09/13 06:24:54;;;;;;;22.55;5.82;;;19.80;95.60;;;;;;5075749;28;20044;-76
2023/09/13 06:27:21;;;;;;;12.23;5.43;;;19.90;95.50;;;;;;5074042;28;20045;-76
2023/09/13 06:29:48;;;;;;;14.32;4.93;;;20.00;95.50;;;;;;5072291;28;20072;-76
2023/09/13 06:32:16;;;;;;;13.60;5.10;;;20.10;95.00;;;;;;5079382;28;20050;-76
2023/09/13 06:35:02;;;;;;;13.60;5.35;;;20.10;94.60;;;;;;5080595;28;20055;-76
2023/09/13 06:37:31;;;;;;;11.75;4.93;;;20.30;94.60;;;;;;5078088;28;20097;-77
2023/09/13 06:39:58;;;;;;;18.35;5.30;;;20.30;94.70;;;;;;5081470;28;20063;-76
2023/09/13 06:42:26;;;;;;;14.55;5.22;;;20.40;94.70;;;;;;5078412;28;20127;-76
2023/09/13 06:44:56;;;;;;;13.15;5.05;;;20.50;94.30;;;;;;5069738;28;20127;-76
2023/09/13 06:47:43;;;;;;;14.13;5.10;;;20.50;94.00;;;;;;5073788;28;20047;-76
2023/09/13 06:50:12;;;;;;;13.20;4.47;;;20.70;94.90;;;;;;5077465;28;20658;-77
2023/09/13 06:52:41;;;;;;;17.73;5.97;;;20.70;94.00;;;;;;5073454;28;20597;-77
2023/09/13 06:55:30;;;;;;;16.40;4.72;;;20.80;94.70;;;;;;5079177;28;20040;-77
2023/09/13 06:58:02;;;;;;;;;;;21.00;94.40;;;;;;5069995;28;20050;-76
2023/09/13 07:00:35;;;;;;;13.40;3.97;;;21.00;94.00;;;;;;5075782;28;19928;-77
2023/09/13 07:03:22;;;;;;;12.27;4.15;;;21.10;92.90;;;;;;5079106;28;20040;-76
2023/09/13 07:05:52;;;;;;;13.98;4.25;;;21.20;92.00;;;;;;5083849;28;20059;-76
2023/09/13 07:08:19;;;;;;;9.38;4.57;;;21.30;92.40;;;;;;5069025;28;20119;-76
2023/09/13 07:10:47;;;;;;;10.43;3.30;;;21.50;92.90;;;;;;5049427;28;20052;-78
2023/09/13 07:13:14;;;;;;;12.50;3.90;;;21.60;93.30;;;;;;5050569;28;20052;-76
2023/09/13 07:15:41;;;;;;;11.68;3.65;;;21.70;92.80;;;;;;5056283;28;20056;-76
2023/09/13 07:18:08;;;;;;;10.20;4.53;;;21.70;92.40;;;;;;5033598;28;20059;-77
2023/09/13 07:20:35;;;;;;;13.82;3.25;;;21.80;91.90;;;;;;5043215;28;20044;-77
2023/09/13 07:23:03;;;;;;;14.10;3.95;;;21.90;91.50;;;;;;5040400;28;20051;-78
2023/09/13 07:25:30;;;;;;;9.80;4.50;;;22.00;91.60;;;;;;5038816;28;20048;-77
2023/09/13 07:27:58;;;;;;;8.10;4.10;;;22.10;91.00;;;;;;5049750;28;20127;-78
2023/09/13 07:30:26;;;;;;;10.23;4.25;;;22.20;91.30;;;;;;5078292;28;20253;-77
2023/09/13 07:32:53;;;;;;;12.32;4.72;;;22.40;91.00;;;;;;5052683;28;20158;-77
2023/09/13 07:35:21;;;;;;;7.93;3.30;;;22.50;90.90;;;;;;5043071;28;20213;-77
2023/09/13 07:37:48;;;;;;;10.55;4.55;;;22.60;91.20;;;;;;5059134;27;20194;-76
2023/09/13 07:40:15;;;;;;;9.13;4.60;;;22.70;91.20;;;;;;5038647;28;20201;-76
2023/09/13 07:42:43;;;;;;;11.43;4.32;;;22.80;91.00;;;;;;5039473;28;20063;-77
2023/09/13 07:45:10;;;;;;;12.73;4.70;;;22.90;91.00;;;;;;5045083;28;20186;-78
2023/09/13 07:47:37;;;;;;;12.43;4.78;;;23.10;91.40;;;;;;5044557;28;20402;-78
2023/09/13 07:50:05;;;;;;;9.48;3.90;;;23.10;91.00;;;;;;5050946;28;20032;-77
2023/09/13 07:52:32;;;;;;;10.60;4.75;;;23.30;91.70;;;;;;5065196;28;20055;-76
2023/09/13 07:55:19;;;;;;;9.90;4.47;;;23.40;91.70;;;;;;5074020;28;20048;-77
2023/09/13 07:57:46;;;;;;;10.85;5.03;;;23.50;92.00;;;;;;5064275;28;20040;-77
2023/09/13 08:00:14;;;;;;;9.18;4.80;;;23.60;92.20;;;;;;5087196;28;20098;-77
2023/09/13 08:02:41;;;;;;;11.00;4.53;;;23.70;91.60;;;;;;5072111;28;20516;-78
2023/09/13 08:05:09;;;;;;;10.50;5.60;;;23.80;91.80;;;;;;5076204;28;20044;-76
2023/09/13 08:07:36;;;;;;;9.27;4.82;;;23.90;91.40;;;;;;5064056;28;20055;-79
2023/09/13 08:10:04;;;;;;;14.75;5.85;;;24.00;91.40;;;;;;5060912;28;20047;-76
2023/09/13 08:12:31;;;;;;;14.98;5.80;;;24.00;91.00;;;;;;5076598;28;20047;-79
2023/09/13 08:14:58;;;;;;;10.65;5.32;;;24.10;91.50;;;;;;5080116;28;20114;-78
2023/09/13 08:17:25;;;;;;;16.67;7.03;;;24.30;91.00;;;;;;5073346;28;20040;-78
2023/09/13 08:19:52;;;;;;;11.68;5.60;;;24.30;90.50;;;;;;5075795;28;20056;-78
2023/09/13 08:22:19;;;;;;;9.05;4.90;;;24.50;89.90;;;;;;5069388;28;20083;-77
2023/09/13 08:25:04;;;;;;;14.40;5.07;;;24.60;89.00;;;;;;5071875;28;20053;-77
2023/09/13 08:27:32;;;;;;;14.90;4.82;;;24.70;87.80;;;;;;5081255;28;20394;-79
2023/09/13 08:29:59;;;;;;;12.43;5.20;;;24.90;88.70;;;;;;5079561;28;20053;-77
2023/09/13 08:32:26;;;;;;;11.52;4.82;;;24.90;87.70;;;;;;5081065;28;20036;-77
2023/09/13 08:34:55;;;;;;;8.45;4.47;;;25.00;87.90;;;;;;5074610;28;20048;-77
2023/09/13 08:37:22;;;;;;;8.43;4.97;;;25.10;87.90;;;;;;5089061;28;20067;-77
2023/09/13 08:39:50;;;;;;;9.68;5.28;;;25.20;86.90;;;;;;5059014;28;20146;-77
2023/09/13 08:42:17;;;;;;;10.18;4.68;;;25.30;86.60;;;;;;5062115;28;20044;-77
2023/09/13 08:44:46;;;;;;;11.25;4.97;;;25.30;84.60;;;;;;5072764;28;20514;-77
2023/09/13 08:47:13;;;;;;;9.07;4.95;;;25.30;83.90;;;;;;5074286;28;20056;-77
2023/09/13 08:49:42;;;;;;;8.48;5.28;;;25.40;84.80;;;;;;5056718;28;20482;-77
2023/09/13 08:52:10;;;;;;;17.98;5.88;;;25.40;85.10;;;;;;5076045;28;20054;-77
2023/09/13 08:54:39;;;;;;;16.75;5.65;;;25.50;84.50;;;;;;5072754;28;20043;-78
2023/09/13 08:57:25;;;;;;;9.07;5.25;;;25.50;85.10;;;;;;5085759;28;20081;-78
2023/09/13 08:59:52;;;;;;;8.80;5.35;;;25.30;82.50;;;;;;5091933;28;20131;-77
2023/09/13 09:02:22;;;;;;;7.20;4.55;;;25.40;84.60;;;;;;5070925;28;20043;-77
2023/09/13 09:04:51;;;;;;;9.43;5.03;;;25.40;84.90;;;;;;5078285;28;20053;-77
2023/09/13 09:07:19;;;;;;;10.13;5.70;;;25.60;84.90;;;;;;5069262;28;20060;-77
2023/09/13 09:09:47;;;;;;;7.68;5.30;;;25.70;83.00;;;;;;5072147;28;20043;-77
2023/09/13 09:12:18;;;;;;;11.82;5.45;;;25.70;82.00;;;;;;5074508;28;20058;-77
2023/09/13 09:14:48;;;;;;;10.15;5.60;;;25.80;82.60;;;;;;5086792;28;20048;-77
2023/09/13 09:17:16;;;;;;;11.27;6.03;;;25.80;83.10;;;;;;5054637;28;20079;-78
2023/09/13 09:19:44;;;;;;;8.40;5.22;;;25.80;83.30;;;;;;5079549;28;20551;-79
2023/09/13 09:22:12;;;;;;;9.55;5.30;;;25.70;81.90;;;;;;5080001;28;20048;-77
2023/09/13 09:24:40;;;;;;;13.30;5.50;;;25.90;83.30;;;;;;5078822;28;20048;-77
2023/09/13 09:27:07;;;;;;;8.48;5.65;;;26.10;83.90;;;;;;5079852;28;20119;-78
2023/09/13 09:29:39;;;;;;;11.95;5.70;;;26.20;82.10;;;;;;5082050;28;23179;-79
2023/09/13 09:32:08;;;;;;;7.90;5.72;;;26.30;83.20;;;;;;5078015;28;20059;-78
2023/09/13 09:34:42;;;;;;;7.65;5.35;;;26.30;83.30;;;;;;5074462;28;20075;-80
2023/09/13 09:37:09;;;;;;;9.65;5.60;;;26.40;83.50;;;;;;5085075;28;20067;-78
2023/09/13 09:39:43;;;;;;;9.27;5.55;;;26.50;82.90;;;;;;5076664;28;20048;-77
2023/09/13 09:42:16;;;;;;;6.65;5.68;;;26.60;82.20;;;;;;5089970;27;20547;-79
2023/09/13 09:44:43;;;;;;;10.23;5.97;;;26.50;81.30;;;;;;5071819;28;22898;-79
2023/09/13 09:47:14;;;;;;;8.55;5.80;;;26.50;81.70;;;;;;5078776;28;20082;-78
2023/09/13 09:49:43;;;;;;;9.02;5.85;;;26.60;82.60;;;;;;5084832;28;22784;-77
2023/09/13 09:52:12;;;;;;;8.80;5.75;;;26.60;81.60;;;;;;5079535;28;22371;-78
2023/09/13 09:54:39;;;;;;;10.63;5.95;;;26.70;82.20;;;;;;5086155;28;20058;-78
2023/09/13 09:57:08;;;;;;;8.52;5.72;;;26.70;81.00;;;;;;5067267;28;20129;-78
2023/09/13 09:59:36;;;;;;;10.57;5.90;;;26.80;81.20;;;;;;5080287;28;20064;-78
2023/09/13 10:02:03;;;;;;;10.15;5.72;;;26.70;79.50;;;;;;5081584;28;22990;-78
2023/09/13 10:04:45;;;;;;;9.15;5.88;;;26.80;80.60;;;;;;5067823;28;20049;-79
2023/09/13 10:07:12;;;;;;;10.18;6.03;;;26.90;80.20;;;;;;5083658;28;20036;-78
2023/09/13 10:09:41;;;;;;;9.43;6.18;;;26.90;79.60;;;;;;5077371;28;20076;-77
2023/09/13 10:12:09;;;;;;;10.07;6.15;;;26.80;80.30;;;;;;5085430;28;20056;-77
2023/09/13 10:14:38;;;;;;;9.98;6.28;;;26.70;78.20;;;;;;5081771;28;20063;-78
2023/09/13 10:17:06;;;;;;;8.65;5.40;;;26.70;79.10;;;;;;5089010;28;20448;-78
2023/09/13 10:19:35;;;;;;;14.13;5.72;;;26.80;80.50;;;;;;5067309;28;20102;-77
2023/09/13 10:22:03;;;;;;;10.50;5.20;;;27.10;80.70;;;;;;5070063;28;20037;-76
2023/09/13 10:24:52;;;;;;;9.18;5.57;;;27.00;76.50;;;;;;5076764;28;20060;-77
2023/09/13 10:27:22;;;;;;;11.02;5.65;;;26.90;79.20;;;;;;5078940;28;20089;-76
2023/09/13 10:29:55;;;;;;;9.52;5.55;;;26.90;79.40;;;;;;5061939;28;20056;-77
2023/09/13 10:32:32;;;;;;;11.05;6.25;;;27.00;78.40;;;;;;5085968;28;20052;-76
2023/09/13 10:35:01;;;;;;;10.13;5.78;;;27.10;76.10;;;;;;5084190;28;20051;-77
2023/09/13 10:37:43;;;;;;;8.70;5.88;;;26.90;79.10;;;;;;5064797;28;22718;-76
2023/09/13 10:40:20;;;;;;;8.25;5.05;;;26.90;77.90;;;;;;5062076;28;20063;-76
2023/09/13 10:42:49;;;;;;;11.65;5.38;;;27.00;78.80;;;;;;5090683;27;20102;-76
2023/09/13 10:45:19;;;;;;;6.38;5.25;;;27.10;78.20;;;;;;5083240;28;20040;-78
2023/09/13 10:47:48;;;;;;;10.85;5.57;;;27.20;76.00;;;;;;5074070;28;20482;-76
2023/09/13 10:50:17;;;;;;;9.95;5.03;;;27.20;75.50;;;;;;5075547;28;20101;-76
2023/09/13 10:52:44;;;;;;;10.00;5.65;;;27.30;74.70;;;;;;5079168;28;20110;-76
2023/09/13 10:55:13;;;;;;;7.68;5.40;;;27.40;75.40;;;;;;5072807;28;20089;-76
2023/09/13 10:57:41;;;;;;;8.68;5.82;;;27.40;75.70;;;;;;5080272;28;20047;-77
2023/09/13 11:00:10;;;;;;;7.85;5.22;;;27.50;75.10;;;;;;5078082;28;20048;-77
2023/09/13 11:02:42;;;;;;;9.75;5.13;;;27.60;74.20;;;;;;5059908;28;20131;-77
2023/09/13 11:05:11;;;;;;;7.18;5.18;;;27.50;75.90;;;;;;5083166;28;20518;-76
2023/09/13 11:07:43;;;;;;;8.23;4.60;;;27.60;74.70;;;;;;5070974;28;20048;-77
2023/09/13 11:10:14;;;;;;;8.18;5.05;;;27.50;74.40;;;;;;5076115;28;20045;-77
2023/09/13 11:12:48;;;;;;;7.95;5.22;;;27.60;73.90;;;;;;5090075;28;20048;-76
2023/09/13 11:15:25;;;;;;;8.88;5.22;;;27.70;74.30;;;;;;5065036;28;20071;-79
2023/09/13 11:18:12;;;;;;;7.60;5.20;;;27.80;73.30;;;;;;5082436;28;20072;-77
2023/09/13 11:20:40;;;;;;;9.32;5.00;;;27.80;71.80;;;;;;5077277;28;20463;-78
2023/09/13 11:23:09;;;;;;;8.88;5.15;;;27.90;74.50;;;;;;5070555;28;20036;-76
2023/09/13 11:25:40;;;;;;;;;;;27.90;74.10;;;;;;5076587;28;20068;-76
2023/09/13 11:28:36;;;;;;;9.10;4.95;;;28.00;74.70;;;;;;5067889;28;19939;-76
2023/09/13 11:31:06;;;;;;;8.60;5.43;;;28.10;72.20;;;;;;5066913;28;20057;-79
2023/09/13 11:33:55;;;;;;;7.90;5.00;;;28.10;72.00;;;;;;5077762;28;20043;-79
2023/09/13 11:36:27;;;;;;;8.65;5.05;;;28.00;71.80;;;;;;5082722;28;20123;-77
2023/09/13 11:39:00;;;;;;;11.68;5.03;;;28.10;71.90;;;;;;5077636;28;20048;-78
2023/09/13 11:41:27;;;;;;;7.55;4.70;;;28.30;71.30;;;;;;5073839;28;20088;-77
2023/09/13 11:43:54;;;;;;;7.57;4.63;;;28.20;71.10;;;;;;5064497;28;20048;-78
2023/09/13 11:46:27;;;;;;;9.77;4.88;;;28.20;71.50;;;;;;5080194;28;20494;-77
2023/09/13 11:48:57;;;;;;;7.97;4.70;;;28.20;71.40;;;;;;5097294;28;20108;-77
2023/09/13 11:51:32;;;;;;;6.18;4.85;;;28.30;69.90;;;;;;5081045;28;20048;-78
2023/09/13 11:54:20;;;;;;;7.57;4.50;;;28.30;69.90;;;;;;5069979;28;20043;-77
2023/09/13 11:56:53;;;;;;;5.95;4.13;;;28.30;69.50;;;;;;5060187;28;20062;-77
2023/09/13 11:59:41;;;;;;;8.25;4.80;;;28.30;70.00;;;;;;5091339;28;20135;-78
2023/09/13 12:02:11;;;;;;;5.88;4.63;;;28.40;69.30;;;;;;5090856;28;20052;-77
2023/09/13 12:04:43;;;;;;;;;;;28.40;70.20;;;;;;5079555;28;20079;-78
2023/09/13 12:07:13;;;;;;;5.53;4.68;;;28.50;68.80;;;;;;5079506;28;19935;-78
2023/09/13 12:09:54;;;;;;;6.88;4.95;;;28.50;68.10;;;;;;5089935;28;20043;-79
2023/09/13 12:12:26;;;;;;;9.15;4.10;;;28.50;68.00;;;;;;5082847;28;20537;-76
2023/09/13 12:15:15;;;;;;;7.97;4.43;;;28.50;67.10;;;;;;5069590;28;20047;-79
2023/09/13 12:18:05;;;;;;;5.82;4.28;;;28.60;66.20;;;;;;5067554;28;20052;-77
2023/09/13 12:20:32;;;;;;;6.53;4.20;;;28.60;66.20;;;;;;5063617;28;20105;-77
2023/09/13 12:23:00;;;;;;;6.38;4.97;;;28.60;66.80;;;;;;5078358;28;20056;-77
2023/09/13 12:25:27;;;;;;;7.20;4.40;;;28.60;67.00;;;;;;5082672;28;20090;-77
2023/09/13 12:27:54;;;;;;;7.35;4.60;;;28.60;67.60;;;;;;5082300;28;22870;-77
2023/09/13 12:30:21;;;;;;;6.97;4.60;;;28.60;67.90;;;;;;5062328;28;20080;-78
2023/09/13 12:32:51;;;;;;;8.25;4.40;;;28.60;67.90;;;;;;5082212;28;20057;-80
2023/09/13 12:35:19;;;;;;;7.55;4.45;;;28.60;66.50;;;;;;5083457;28;20048;-77
2023/09/13 12:37:57;;;;;;;5.78;4.95;;;28.60;66.60;;;;;;5084591;28;20044;-77
2023/09/13 12:40:28;;;;;;;5.90;4.72;;;28.60;67.80;;;;;;5066023;28;20834;-78
2023/09/13 12:42:56;;;;;;;7.43;4.75;;;28.60;66.70;;;;;;5077207;28;20048;-78
2023/09/13 12:45:23;;;;;;;8.00;4.80;;;28.60;66.80;;;;;;5080923;28;20047;-78
2023/09/13 12:47:50;;;;;;;6.20;4.40;;;28.50;66.30;;;;;;5081010;28;22791;-77
2023/09/13 12:50:20;;;;;;;4.57;4.03;;;28.60;67.00;;;;;;5067432;28;20399;-78
2023/09/13 12:53:01;;;;;;;8.52;4.30;;;28.60;67.80;;;;;;5076504;28;20044;-78
2023/09/13 12:55:30;;;;;;;6.70;4.53;;;28.60;67.00;;;;;;5079664;28;20131;-80